Terminal Aerodrome Forecast
Issued by NWS Paducah, KY

Home | Current Version | Previous Version | Graphics & Text | Print | Product List | Glossary On
Versions: 1 2 3 4 5 6 7 8 9 10 11 12 13 14 15 16 17 18 19 20 21 22 23 24 25
000
FTUS43 KPAH 061401 AAB
TAFPAH
TAF AMD
KPAH 061401Z 0614/0712 18005KT 6SM BR OVC015
      TEMPO 0614/0615 BKN008
     FM061600 21007KT P6SM BKN025
     FM061800 22008KT P6SM SCT035
     FM070100 19006KT P6SM BKN250
     FM070800 21007KT 6SM BR OVC070=

USA.gov is the U.S. government's official web portal to all federal, state and local government web resources and services.